sensor_id;sensor_type;location;lat;lon;timestamp;P1;durP1;ratioP1;P2;durP2;ratioP2
46637;SDS011;32365;46.938;7.390;2022-07-24T05:57:54;12.45;;;10.00;;
46637;SDS011;32365;46.938;7.390;2022-07-24T06:00:21;15.07;;;10.82;;
46637;SDS011;32365;46.938;7.390;2022-07-24T06:02:48;11.90;;;9.75;;
46637;SDS011;32365;46.938;7.390;2022-07-24T06:05:15;12.10;;;9.75;;
46637;SDS011;32365;46.938;7.390;2022-07-24T06:07:42;11.38;;;9.95;;
46637;SDS011;32365;46.938;7.390;2022-07-24T06:10:10;10.30;;;9.20;;
46637;SDS011;32365;46.938;7.390;2022-07-24T06:12:38;10.43;;;9.32;;
46637;SDS011;32365;46.938;7.390;2022-07-24T06:15:07;11.27;;;9.75;;
46637;SDS011;32365;46.938;7.390;2022-07-24T06:17:35;10.90;;;9.80;;
46637;SDS011;32365;46.938;7.390;2022-07-24T06:20:02;11.32;;;9.57;;
46637;SDS011;32365;46.938;7.390;2022-07-24T06:22:29;13.00;;;9.82;;
46637;SDS011;32365;46.938;7.390;2022-07-24T06:24:56;11.73;;;10.45;;
46637;SDS011;32365;46.938;7.390;2022-07-24T06:27:23;10.52;;;9.48;;
46637;SDS011;32365;46.938;7.390;2022-07-24T06:29:50;11.38;;;10.18;;
46637;SDS011;32365;46.938;7.390;2022-07-24T06:32:18;11.23;;;9.93;;
46637;SDS011;32365;46.938;7.390;2022-07-24T06:34:45;12.10;;;9.38;;
46637;SDS011;32365;46.938;7.390;2022-07-24T06:37:12;10.85;;;9.70;;
46637;SDS011;32365;46.938;7.390;2022-07-24T06:39:39;12.30;;;9.60;;
46637;SDS011;32365;46.938;7.390;2022-07-24T06:42:06;12.57;;;9.75;;
46637;SDS011;32365;46.938;7.390;2022-07-24T06:44:33;10.80;;;9.70;;
46637;SDS011;32365;46.938;7.390;2022-07-24T06:47:01;12.07;;;9.70;;
46637;SDS011;32365;46.938;7.390;2022-07-24T06:49:29;11.35;;;9.65;;
46637;SDS011;32365;46.938;7.390;2022-07-24T06:51:57;11.15;;;10.00;;
46637;SDS011;32365;46.938;7.390;2022-07-24T06:54:23;10.98;;;9.88;;
46637;SDS011;32365;46.938;7.390;2022-07-24T06:56:50;10.68;;;9.57;;
46637;SDS011;32365;46.938;7.390;2022-07-24T06:59:18;10.07;;;8.20;;
46637;SDS011;32365;46.938;7.390;2022-07-24T07:01:44;11.70;;;9.65;;
46637;SDS011;32365;46.938;7.390;2022-07-24T07:04:11;10.70;;;9.20;;
46637;SDS011;32365;46.938;7.390;2022-07-24T07:06:39;10.45;;;9.43;;
46637;SDS011;32365;46.938;7.390;2022-07-24T07:09:06;10.25;;;8.80;;
46637;SDS011;32365;46.938;7.390;2022-07-24T07:11:32;12.73;;;9.27;;
46637;SDS011;32365;46.938;7.390;2022-07-24T07:13:59;9.98;;;8.98;;
46637;SDS011;32365;46.938;7.390;2022-07-24T07:16:27;8.85;;;8.02;;
46637;SDS011;32365;46.938;7.390;2022-07-24T07:18:54;11.27;;;8.88;;
46637;SDS011;32365;46.938;7.390;2022-07-24T07:21:20;9.48;;;8.60;;
46637;SDS011;32365;46.938;7.390;2022-07-24T07:23:49;8.98;;;8.07;;
46637;SDS011;32365;46.938;7.390;2022-07-24T07:26:17;8.55;;;7.85;;
46637;SDS011;32365;46.938;7.390;2022-07-24T07:28:44;9.10;;;8.13;;
46637;SDS011;32365;46.938;7.390;2022-07-24T07:31:11;8.48;;;7.63;;
46637;SDS011;32365;46.938;7.390;2022-07-24T07:33:38;8.60;;;7.68;;
46637;SDS011;32365;46.938;7.390;2022-07-24T07:36:05;10.82;;;8.60;;
46637;SDS011;32365;46.938;7.390;2022-07-24T07:38:33;9.30;;;8.32;;
46637;SDS011;32365;46.938;7.390;2022-07-24T07:41:04;9.63;;;7.97;;
46637;SDS011;32365;46.938;7.390;2022-07-24T07:43:31;9.50;;;8.43;;
46637;SDS011;32365;46.938;7.390;2022-07-24T07:45:57;9.00;;;7.53;;
46637;SDS011;32365;46.938;7.390;2022-07-24T07:48:24;9.35;;;8.35;;
46637;SDS011;32365;46.938;7.390;2022-07-24T07:50:52;7.75;;;7.07;;
46637;SDS011;32365;46.938;7.390;2022-07-24T07:53:18;8.02;;;7.22;;
46637;SDS011;32365;46.938;7.390;2022-07-24T07:55:45;9.23;;;8.32;;
46637;SDS011;32365;46.938;7.390;2022-07-24T07:58:14;9.05;;;8.15;;
46637;SDS011;32365;46.938;7.390;2022-07-24T08:00:41;8.10;;;7.30;;
46637;SDS011;32365;46.938;7.390;2022-07-24T08:03:09;7.95;;;7.20;;
46637;SDS011;32365;46.938;7.390;2022-07-24T08:05:36;8.88;;;7.55;;
46637;SDS011;32365;46.938;7.390;2022-07-24T18:04:17;8.23;;;4.82;;
46637;SDS011;32365;46.938;7.390;2022-07-24T18:06:44;4.95;;;4.55;;
46637;SDS011;32365;46.938;7.390;2022-07-24T18:09:11;5.78;;;5.13;;
46637;SDS011;32365;46.938;7.390;2022-07-24T18:11:38;5.85;;;5.28;;
46637;SDS011;32365;46.938;7.390;2022-07-24T18:14:05;6.28;;;5.22;;
46637;SDS011;32365;46.938;7.390;2022-07-24T18:16:32;5.53;;;5.07;;
46637;SDS011;32365;46.938;7.390;2022-07-24T18:18:58;5.40;;;5.00;;
46637;SDS011;32365;46.938;7.390;2022-07-24T18:21:26;6.30;;;4.90;;
46637;SDS011;32365;46.938;7.390;2022-07-24T18:23:53;6.05;;;5.45;;
46637;SDS011;32365;46.938;7.390;2022-07-24T18:26:20;4.97;;;4.65;;
46637;SDS011;32365;46.938;7.390;2022-07-24T18:28:47;6.03;;;5.43;;
46637;SDS011;32365;46.938;7.390;2022-07-24T18:31:14;6.90;;;5.22;;
46637;SDS011;32365;46.938;7.390;2022-07-24T18:33:40;5.93;;;5.47;;
46637;SDS011;32365;46.938;7.390;2022-07-24T18:36:07;5.35;;;4.88;;
46637;SDS011;32365;46.938;7.390;2022-07-24T18:38:36;5.40;;;4.90;;
46637;SDS011;32365;46.938;7.390;2022-07-24T18:41:03;6.47;;;5.85;;
46637;SDS011;32365;46.938;7.390;2022-07-24T18:43:30;5.35;;;4.95;;
46637;SDS011;32365;46.938;7.390;2022-07-24T18:45:56;5.85;;;4.90;;
46637;SDS011;32365;46.938;7.390;2022-07-24T18:48:23;6.00;;;5.50;;
46637;SDS011;32365;46.938;7.390;2022-07-24T18:50:50;5.13;;;4.70;;
46637;SDS011;32365;46.938;7.390;2022-07-24T18:53:17;5.38;;;4.78;;
46637;SDS011;32365;46.938;7.390;2022-07-24T18:55:45;5.65;;;5.15;;
46637;SDS011;32365;46.938;7.390;2022-07-24T18:58:11;6.53;;;5.35;;
46637;SDS011;32365;46.938;7.390;2022-07-24T19:00:38;5.90;;;5.40;;
46637;SDS011;32365;46.938;7.390;2022-07-24T19:03:05;5.43;;;4.93;;
46637;SDS011;32365;46.938;7.390;2022-07-24T19:05:32;6.30;;;5.55;;
46637;SDS011;32365;46.938;7.390;2022-07-24T19:07:58;7.85;;;5.15;;
46637;SDS011;32365;46.938;7.390;2022-07-24T19:10:27;5.68;;;4.80;;
46637;SDS011;32365;46.938;7.390;2022-07-24T19:12:55;6.75;;;5.65;;
46637;SDS011;32365;46.938;7.390;2022-07-24T19:15:22;7.28;;;5.30;;
46637;SDS011;32365;46.938;7.390;2022-07-24T19:17:50;6.80;;;5.40;;
46637;SDS011;32365;46.938;7.390;2022-07-24T19:20:17;5.85;;;5.28;;
46637;SDS011;32365;46.938;7.390;2022-07-24T19:22:45;6.68;;;5.35;;
46637;SDS011;32365;46.938;7.390;2022-07-24T19:25:11;7.78;;;5.78;;
46637;SDS011;32365;46.938;7.390;2022-07-24T19:27:39;6.22;;;5.65;;
46637;SDS011;32365;46.938;7.390;2022-07-24T19:30:08;7.32;;;6.20;;
46637;SDS011;32365;46.938;7.390;2022-07-24T19:32:36;6.33;;;5.73;;
46637;SDS011;32365;46.938;7.390;2022-07-24T19:35:03;5.95;;;5.45;;
46637;SDS011;32365;46.938;7.390;2022-07-24T19:37:31;6.88;;;6.18;;
46637;SDS011;32365;46.938;7.390;2022-07-24T19:39:58;6.15;;;5.55;;
46637;SDS011;32365;46.938;7.390;2022-07-24T19:42:24;6.65;;;5.80;;
46637;SDS011;32365;46.938;7.390;2022-07-24T19:44:51;5.93;;;5.50;;
